Time;durP1;ratioP1;P1;durP2;ratioP2;P2;SDS_P1;SDS_P2;PMS_P1;PMS_P2;Temp;Humidity;BMP_temperature;BMP_pressure;BME280_temperature;BME280_humidity;BME280_pressure;Samples;Min_cycle;Max_cycle;Signal;HPM_P1;HPM_P2
2022/09/28 00:01:15;;;;;;;0.50;0.50;;;;;;;;;;5025041;28;20049;-74
2022/09/28 00:03:43;;;;;;;0.30;0.20;;;;;;;;;;5021748;28;20054;-74
2022/09/28 00:06:12;;;;;;;0.10;0.10;;;;;;;;;;5026091;28;20057;-74
2022/09/28 00:08:41;;;;;;;0.08;0.08;;;;;;;;;;5019815;28;20277;-74
2022/09/28 00:11:11;;;;;;;1.02;0.55;;;;;;;;;;5016447;28;20049;-74
2022/09/28 00:13:41;;;;;;;0.22;0.20;;;;;;;;;;5024715;28;20046;-76
2022/09/28 00:16:12;;;;;;;0.15;0.15;;;;;;;;;;5024360;28;22080;-74
2022/09/28 00:18:41;;;;;;;0.40;0.20;;;;;;;;;;5015263;28;20480;-75
2022/09/28 00:21:11;;;;;;;0.20;0.20;;;;;;;;;;5023948;28;20045;-74
2022/09/28 00:24:11;;;;;;;0.10;0.10;;;;;;;;;;5019376;28;20049;-75
2022/09/28 00:26:28;;;;;;;0.00;0.00;;;;;;;;;;5025131;28;20136;-75
2022/09/28 00:28:58;;;;;;;0.10;0.10;;;;;;;;;;5025856;28;20616;-74
2022/09/28 00:31:26;;;;;;;0.32;0.32;;;;;;;;;;5024228;28;20060;-75
2022/09/28 00:33:55;;;;;;;0.10;0.10;;;;;;;;;;5021844;28;20042;-75
2022/09/28 00:36:25;;;;;;;0.00;0.00;;;;;;;;;;5019660;28;20142;-74
2022/09/28 00:38:55;;;;;;;0.05;0.05;;;;;;;;;;5021516;28;20062;-75
2022/09/28 00:41:23;;;;;;;0.30;0.30;;;;;;;;;;5013939;28;20063;-78
2022/09/28 00:43:52;;;;;;;0.20;0.20;;;;;;;;;;5020950;28;20100;-75
2022/09/28 00:46:24;;;;;;;0.10;0.10;;;;;;;;;;5027098;28;20049;-75
2022/09/28 00:48:55;;;;;;;5.82;0.40;;;;;;;;;;5026573;28;20045;-75
2022/09/28 00:51:24;;;;;;;0.10;0.10;;;;;;;;;;5014221;28;20163;-76
2022/09/28 00:53:53;;;;;;;0.10;0.10;;;;;;;;;;5023926;28;20045;-75
2022/09/28 00:56:23;;;;;;;0.03;0.03;;;;;;;;;;5024768;28;20053;-75
2022/09/28 00:58:53;;;;;;;0.10;0.10;;;;;;;;;;5029050;28;20042;-76
2022/09/28 01:01:23;;;;;;;0.43;0.30;;;;;;;;;;5018408;28;20056;-74
2022/09/28 01:03:52;;;;;;;0.08;0.08;;;;;;;;;;5020512;28;20132;-75
2022/09/28 01:06:21;;;;;;;0.10;0.10;;;;;;;;;;5018468;28;20048;-75
2022/09/28 01:08:51;;;;;;;0.15;0.15;;;;;;;;;;5026347;28;20524;-75
2022/09/28 01:11:20;;;;;;;0.10;0.10;;;;;;;;;;5027544;28;20437;-77
2022/09/28 01:13:49;;;;;;;0.10;0.10;;;;;;;;;;5019914;28;20053;-75
2022/09/28 01:16:20;;;;;;;0.10;0.10;;;;;;;;;;5023945;28;20049;-76
2022/09/28 01:18:53;;;;;;;0.10;0.10;;;;;;;;;;5022643;28;20053;-75
2022/09/28 01:21:22;;;;;;;0.10;0.10;;;;;;;;;;5028356;28;20045;-76
2022/09/28 01:24:00;;;;;;;0.10;0.10;;;;;;;;;;5017191;28;20065;-74
2022/09/28 01:26:43;;;;;;;2.55;0.10;;;;;;;;;;5016669;28;20061;-74
2022/09/28 01:29:15;;;;;;;0.10;0.10;;;;;;;;;;5024209;28;20046;-75
2022/09/28 01:31:46;;;;;;;0.08;0.08;;;;;;;;;;5027483;28;20048;-76
2022/09/28 01:34:16;;;;;;;0.10;0.10;;;;;;;;;;5027566;28;20057;-75
2022/09/28 01:36:46;;;;;;;0.10;0.10;;;;;;;;;;5021830;28;20049;-75
2022/09/28 01:39:18;;;;;;;0.10;0.10;;;;;;;;;;5020436;28;20246;-75
2022/09/28 01:41:52;;;;;;;0.20;0.20;;;;;;;;;;5016629;28;20048;-74
2022/09/28 01:44:21;;;;;;;0.00;0.00;;;;;;;;;;5015979;28;20054;-75
2022/09/28 01:46:50;;;;;;;0.10;0.10;;;;;;;;;;5025283;28;20037;-73
2022/09/28 01:49:20;;;;;;;0.10;0.10;;;;;;;;;;5023916;28;20132;-76
2022/09/28 01:51:51;;;;;;;0.10;0.10;;;;;;;;;;5023269;28;20049;-75
2022/09/28 01:54:22;;;;;;;0.10;0.10;;;;;;;;;;5026528;28;20045;-75
2022/09/28 01:56:55;;;;;;;0.65;0.40;;;;;;;;;;5024049;28;20046;-75
2022/09/28 01:59:25;;;;;;;0.10;0.10;;;;;;;;;;5013545;28;20045;-75
2022/09/28 02:01:55;;;;;;;0.20;0.10;;;;;;;;;;5019647;28;20057;-75
2022/09/28 02:04:27;;;;;;;0.08;0.08;;;;;;;;;;5019589;28;20054;-75
2022/09/28 02:06:57;;;;;;;0.10;0.10;;;;;;;;;;5019001;28;20523;-75
2022/09/28 02:09:26;;;;;;;0.10;0.10;;;;;;;;;;5020109;28;20076;-75
2022/09/28 02:12:05;;;;;;;0.10;0.10;;;;;;;;;;5022500;28;20061;-74
2022/09/28 02:14:35;;;;;;;0.10;0.10;;;;;;;;;;5014261;28;20050;-74
2022/09/28 02:17:04;;;;;;;0.13;0.13;;;;;;;;;;5020808;28;20069;-74
2022/09/28 02:19:33;;;;;;;0.20;0.20;;;;;;;;;;5020540;28;20049;-75
2022/09/28 02:22:03;;;;;;;0.20;0.20;;;;;;;;;;5014292;28;20054;-75
2022/09/28 02:24:39;;;;;;;0.05;0.05;;;;;;;;;;5020802;28;20050;-75
2022/09/28 02:27:12;;;;;;;0.30;0.22;;;;;;;;;;5019200;28;20054;-75
2022/09/28 02:29:40;;;;;;;0.10;0.10;;;;;;;;;;5021887;28;20405;-74
2022/09/28 02:32:08;;;;;;;0.10;0.10;;;;;;;;;;5025952;28;20038;-75
2022/09/28 02:34:37;;;;;;;0.20;0.20;;;;;;;;;;5018344;28;20058;-74
2022/09/28 02:37:05;;;;;;;0.03;0.03;;;;;;;;;;5015007;28;20046;-75
2022/09/28 02:39:33;;;;;;;0.30;0.30;;;;;;;;;;5016961;28;20046;-75
2022/09/28 02:42:08;;;;;;;1.45;0.32;;;;;;;;;;5020914;28;20069;-75
2022/09/28 02:44:36;;;;;;;;;;;;;;;;;;5012271;28;20078;-75
2022/09/28 02:47:10;;;;;;;0.20;0.20;;;;;;;;;;5021271;28;20316;-75
2022/09/28 02:49:44;;;;;;;0.13;0.13;;;;;;;;;;5017714;28;20080;-75
2022/09/28 02:52:20;;;;;;;0.10;0.10;;;;;;;;;;5028831;28;20041;-75
2022/09/28 02:55:03;;;;;;;0.10;0.10;;;;;;;;;;5025598;28;20050;-77
2022/09/28 02:57:39;;;;;;;0.05;0.05;;;;;;;;;;5018225;28;20054;-76
2022/09/28 03:00:09;;;;;;;0.15;0.15;;;;;;;;;;5025161;28;20517;-75
2022/09/28 03:02:46;;;;;;;0.10;0.10;;;;;;;;;;5027012;28;20056;-75
2022/09/28 03:05:19;;;;;;;0.52;0.52;;;;;;;;;;5030928;28;20060;-76
2022/09/28 03:07:51;;;;;;;0.10;0.10;;;;;;;;;;5025955;28;20046;-75
2022/09/28 03:10:22;;;;;;;0.10;0.10;;;;;;;;;;5019602;28;20051;-76
2022/09/28 03:12:51;;;;;;;0.10;0.10;;;;;;;;;;5026424;28;20053;-74
2022/09/28 03:15:23;;;;;;;0.20;0.20;;;;;;;;;;5023986;28;20053;-75
2022/09/28 03:17:52;;;;;;;0.10;0.10;;;;;;;;;;5029998;28;20059;-76
2022/09/28 03:20:21;;;;;;;0.10;0.10;;;;;;;;;;5022594;28;20575;-75
2022/09/28 03:22:49;;;;;;;0.10;0.10;;;;;;;;;;5022796;28;20467;-75
2022/09/28 03:25:37;;;;;;;0.22;0.22;;;;;;;;;;5025485;28;20453;-74
2022/09/28 03:28:05;;;;;;;0.20;0.20;;;;;;;;;;5023972;28;20049;-76
2022/09/28 03:30:34;;;;;;;0.00;0.00;;;;;;;;;;5025176;28;20068;-75
2022/09/28 03:33:04;;;;;;;0.10;0.10;;;;;;;;;;5018079;28;20046;-75
2022/09/28 03:35:32;;;;;;;0.20;0.20;;;;;;;;;;5029111;28;20041;-74
2022/09/28 03:38:00;;;;;;;0.10;0.10;;;;;;;;;;5021684;28;20049;-74
2022/09/28 03:40:29;;;;;;;0.20;0.20;;;;;;;;;;5020807;28;20052;-75
2022/09/28 03:42:58;;;;;;;0.10;0.10;;;;;;;;;;5027979;28;20046;-74
2022/09/28 03:45:26;;;;;;;0.10;0.10;;;;;;;;;;5019531;28;20057;-74
2022/09/28 03:47:55;;;;;;;0.08;0.08;;;;;;;;;;5017499;28;20140;-75
2022/09/28 03:50:25;;;;;;;0.10;0.10;;;;;;;;;;5026816;28;20072;-75
2022/09/28 03:52:53;;;;;;;0.10;0.10;;;;;;;;;;5029964;28;20813;-75
2022/09/28 03:55:21;;;;;;;0.10;0.10;;;;;;;;;;5027496;28;20504;-75
2022/09/28 03:57:54;;;;;;;0.00;0.00;;;;;;;;;;5017015;28;20072;-75
2022/09/28 04:00:23;;;;;;;0.20;0.20;;;;;;;;;;5024916;28;20041;-75
2022/09/28 04:02:51;;;;;;;0.17;0.17;;;;;;;;;;5024748;28;20046;-77
2022/09/28 04:05:19;;;;;;;0.10;0.10;;;;;;;;;;5021035;28;20045;-75
2022/09/28 04:07:49;;;;;;;0.10;0.10;;;;;;;;;;5021804;28;20045;-75
2022/09/28 04:10:17;;;;;;;0.10;0.10;;;;;;;;;;5024477;28;20046;-75
2022/09/28 04:12:45;;;;;;;0.10;0.10;;;;;;;;;;5025224;28;20041;-75
2022/09/28 04:15:14;;;;;;;0.08;0.08;;;;;;;;;;5027031;28;20132;-75
2022/09/28 04:17:43;;;;;;;0.47;0.10;;;;;;;;;;5020230;28;20065;-74
2022/09/28 04:20:11;;;;;;;0.10;0.10;;;;;;;;;;5022738;28;20045;-75
2022/09/28 04:22:40;;;;;;;0.00;0.00;;;;;;;;;;5028656;28;20057;-75
2022/09/28 04:25:10;;;;;;;0.10;0.10;;;;;;;;;;5023070;28;20061;-75
2022/09/28 04:30:26;;;;;;;0.40;0.40;;;;;;;;;;5004405;28;20075;-75
2022/09/28 04:32:54;;;;;;;0.28;0.28;;;;;;;;;;5017780;28;20058;-75
2022/09/28 04:35:23;;;;;;;0.10;0.10;;;;;;;;;;5018923;28;20057;-75
2022/09/28 04:37:51;;;;;;;0.10;0.10;;;;;;;;;;5020441;28;20050;-75
2022/09/28 04:40:21;;;;;;;0.10;0.10;;;;;;;;;;5019859;28;20049;-75
2022/09/28 04:42:54;;;;;;;0.10;0.10;;;;;;;;;;5023508;28;20053;-74
2022/09/28 04:45:24;;;;;;;2.35;0.30;;;;;;;;;;5023112;28;20050;-74
2022/09/28 04:47:53;;;;;;;0.10;0.10;;;;;;;;;;5028247;28;20132;-74
2022/09/28 04:50:21;;;;;;;0.20;0.20;;;;;;;;;;5022272;28;20049;-73
2022/09/28 04:52:50;;;;;;;0.17;0.17;;;;;;;;;;5027160;28;20501;-74
2022/09/28 04:55:19;;;;;;;1.85;0.15;;;;;;;;;;5026304;28;20049;-73
2022/09/28 04:57:49;;;;;;;0.10;0.10;;;;;;;;;;5013270;28;20478;-74
2022/09/28 05:00:17;;;;;;;0.20;0.20;;;;;;;;;;5022764;28;20052;-74
2022/09/28 05:02:45;;;;;;;0.17;0.17;;;;;;;;;;5019948;28;20094;-74
2022/09/28 05:05:13;;;;;;;0.00;0.00;;;;;;;;;;5025395;28;20050;-73
2022/09/28 05:07:42;;;;;;;1.30;0.40;;;;;;;;;;5025145;28;20439;-74
2022/09/28 05:10:10;;;;;;;0.90;0.90;;;;;;;;;;5019969;28;20342;-74
2022/09/28 05:12:38;;;;;;;0.20;0.20;;;;;;;;;;5023615;28;20060;-75
2022/09/28 05:15:08;;;;;;;0.10;0.10;;;;;;;;;;5024276;28;20041;-74
2022/09/28 05:17:37;;;;;;;0.10;0.10;;;;;;;;;;5021271;28;20064;-75
2022/09/28 05:20:06;;;;;;;0.15;0.15;;;;;;;;;;5025225;28;20050;-75
2022/09/28 05:22:34;;;;;;;0.20;0.20;;;;;;;;;;5027991;28;20045;-75
2022/09/28 05:25:02;;;;;;;0.22;0.08;;;;;;;;;;5019187;28;20057;-74
2022/09/28 05:27:31;;;;;;;0.20;0.20;;;;;;;;;;5026642;28;20513;-75
2022/09/28 05:29:59;;;;;;;0.08;0.08;;;;;;;;;;5018077;28;20528;-75
2022/09/28 05:32:29;;;;;;;0.30;0.30;;;;;;;;;;5019422;28;20045;-75
2022/09/28 05:34:59;;;;;;;0.10;0.10;;;;;;;;;;5021221;28;20058;-75
2022/09/28 05:37:28;;;;;;;0.63;0.20;;;;;;;;;;5021272;28;20060;-72
2022/09/28 05:39:56;;;;;;;0.10;0.10;;;;;;;;;;5011600;28;20476;-74
2022/09/28 05:42:24;;;;;;;0.20;0.20;;;;;;;;;;5025764;28;20072;-75
2022/09/28 05:44:53;;;;;;;0.05;0.05;;;;;;;;;;5011029;28;20046;-75
2022/09/28 05:47:21;;;;;;;0.10;0.10;;;;;;;;;;5021629;28;20081;-75
2022/09/28 05:49:51;;;;;;;0.10;0.10;;;;;;;;;;5019309;28;20049;-75
2022/09/28 05:52:20;;;;;;;0.00;0.00;;;;;;;;;;5018137;28;20076;-77
2022/09/28 05:54:48;;;;;;;0.70;0.20;;;;;;;;;;5018121;28;20053;-77
2022/09/28 05:57:16;;;;;;;0.00;0.00;;;;;;;;;;5020892;28;20046;-77
2022/09/28 05:59:44;;;;;;;0.10;0.10;;;;;;;;;;5024870;28;20060;-77
2022/09/28 06:02:13;;;;;;;0.10;0.10;;;;;;;;;;5022885;28;20482;-80
2022/09/28 06:04:41;;;;;;;0.10;0.10;;;;;;;;;;5026462;28;20061;-79
2022/09/28 06:07:11;;;;;;;0.05;0.05;;;;;;;;;;5021886;28;20406;-78
2022/09/28 06:09:39;;;;;;;0.52;0.20;;;;;;;;;;5029232;28;20051;-78
2022/09/28 06:12:08;;;;;;;0.10;0.10;;;;;;;;;;5023812;28;20045;-78
2022/09/28 06:14:37;;;;;;;0.45;0.08;;;;;;;;;;5026655;28;20038;-78
2022/09/28 06:17:06;;;;;;;0.10;0.10;;;;;;;;;;5027208;28;20057;-78
2022/09/28 06:19:34;;;;;;;0.10;0.10;;;;;;;;;;5029092;28;20107;-78
2022/09/28 06:22:02;;;;;;;0.10;0.10;;;;;;;;;;5025975;28;20056;-79
2022/09/28 06:24:32;;;;;;;0.10;0.10;;;;;;;;;;5028969;28;20068;-78
2022/09/28 06:27:00;;;;;;;0.32;0.28;;;;;;;;;;5030052;28;20045;-78
2022/09/28 06:29:28;;;;;;;0.10;0.10;;;;;;;;;;5030703;28;20048;-78
2022/09/28 06:31:57;;;;;;;4.18;0.30;;;;;;;;;;5031228;28;20055;-78
2022/09/28 06:34:25;;;;;;;0.10;0.10;;;;;;;;;;5031027;28;20057;-77
2022/09/28 06:36:53;;;;;;;0.35;0.30;;;;;;;;;;5023623;28;20046;-78
2022/09/28 06:39:22;;;;;;;0.63;0.10;;;;;;;;;;5030239;28;20128;-77
2022/09/28 06:41:51;;;;;;;0.10;0.10;;;;;;;;;;5032913;28;20056;-78
2022/09/28 06:44:20;;;;;;;0.10;0.10;;;;;;;;;;5026086;28;20141;-76
2022/09/28 06:46:49;;;;;;;0.00;0.00;;;;;;;;;;5031047;28;20493;-78
2022/09/28 06:49:18;;;;;;;0.10;0.10;;;;;;;;;;5027894;28;20807;-78
2022/09/28 06:51:46;;;;;;;0.03;0.03;;;;;;;;;;5019050;28;20507;-77
2022/09/28 06:54:15;;;;;;;0.10;0.10;;;;;;;;;;5031358;28;20047;-78
2022/09/28 06:56:43;;;;;;;0.10;0.10;;;;;;;;;;5023921;28;20054;-77
2022/09/28 06:59:13;;;;;;;0.40;0.25;;;;;;;;;;5028941;28;20053;-80
2022/09/28 07:01:42;;;;;;;0.00;0.00;;;;;;;;;;5028011;28;20383;-79
2022/09/28 07:04:11;;;;;;;0.10;0.10;;;;;;;;;;5025507;28;20053;-77
2022/09/28 07:06:39;;;;;;;2.35;0.40;;;;;;;;;;5027791;28;21423;-79
2022/09/28 07:09:08;;;;;;;0.10;0.10;;;;;;;;;;5026049;28;20107;-78
2022/09/28 07:11:56;;;;;;;0.13;0.13;;;;;;;;;;5022655;28;20052;-77
2022/09/28 07:14:26;;;;;;;0.03;0.03;;;;;;;;;;5027109;28;20559;-83
2022/09/28 07:17:14;;;;;;;0.10;0.10;;;;;;;;;;5024380;28;20049;-77
2022/09/28 07:19:43;;;;;;;0.43;0.20;;;;;;;;;;5018749;28;20057;-77
2022/09/28 07:22:13;;;;;;;0.20;0.20;;;;;;;;;;5018364;28;20050;-78
2022/09/28 07:24:46;;;;;;;0.10;0.10;;;;;;;;;;5019824;28;20077;-77
2022/09/28 07:27:15;;;;;;;0.10;0.10;;;;;;;;;;5028306;28;20091;-77
2022/09/28 07:29:45;;;;;;;0.20;0.20;;;;;;;;;;5023461;28;20884;-77
2022/09/28 07:32:13;;;;;;;0.10;0.10;;;;;;;;;;5017691;28;20057;-80
2022/09/28 07:34:43;;;;;;;0.10;0.10;;;;;;;;;;5026382;28;20196;-79
2022/09/28 07:37:12;;;;;;;0.10;0.10;;;;;;;;;;5026181;28;20049;-79
2022/09/28 07:42:29;;;;;;;0.10;0.10;;;;;;;;;;5021301;28;20448;-78
2022/09/28 07:44:59;;;;;;;0.35;0.20;;;;;;;;;;5019441;28;20049;-78
2022/09/28 07:47:28;;;;;;;0.10;0.10;;;;;;;;;;5029439;28;20497;-78
2022/09/28 07:50:02;;;;;;;0.10;0.10;;;;;;;;;;5020305;28;20061;-78
2022/09/28 07:52:33;;;;;;;0.08;0.08;;;;;;;;;;5028931;28;20045;-75
2022/09/28 07:55:01;;;;;;;0.10;0.10;;;;;;;;;;5026547;28;20136;-76
2022/09/28 07:57:35;;;;;;;0.10;0.10;;;;;;;;;;5018626;28;20124;-76
2022/09/28 08:00:07;;;;;;;0.10;0.10;;;;;;;;;;5029856;28;20049;-77
2022/09/28 08:02:36;;;;;;;0.88;0.40;;;;;;;;;;5024260;28;20094;-77
2022/09/28 08:05:04;;;;;;;0.00;0.00;;;;;;;;;;5021641;28;20054;-77
2022/09/28 08:07:35;;;;;;;0.10;0.10;;;;;;;;;;5022803;28;20058;-78
2022/09/28 08:10:05;;;;;;;0.03;0.03;;;;;;;;;;5022158;28;20071;-77
2022/09/28 08:12:34;;;;;;;0.20;0.20;;;;;;;;;;5028837;28;20037;-76
2022/09/28 08:15:10;;;;;;;0.30;0.30;;;;;;;;;;5018164;28;20177;-77
2022/09/28 08:17:39;;;;;;;0.25;0.15;;;;;;;;;;5028190;28;20060;-77
2022/09/28 08:22:55;;;;;;;0.10;0.10;;;;;;;;;;5018640;28;20052;-76
2022/09/28 08:25:24;;;;;;;0.10;0.10;;;;;;;;;;5028252;28;20547;-77
2022/09/28 08:27:53;;;;;;;0.05;0.05;;;;;;;;;;5026550;28;20432;-77
2022/09/28 08:30:23;;;;;;;0.20;0.20;;;;;;;;;;5020333;28;20041;-77
2022/09/28 08:32:52;;;;;;;0.20;0.20;;;;;;;;;;5027979;28;20060;-77
2022/09/28 08:35:21;;;;;;;0.13;0.13;;;;;;;;;;5016011;28;20061;-76
2022/09/28 08:37:53;;;;;;;0.00;0.00;;;;;;;;;;5019429;28;20349;-78
2022/09/28 08:40:24;;;;;;;0.10;0.10;;;;;;;;;;5017395;28;20060;-77
2022/09/28 08:42:54;;;;;;;0.10;0.10;;;;;;;;;;5024973;28;20462;-77
2022/09/28 08:45:26;;;;;;;0.35;0.10;;;;;;;;;;5026481;28;20099;-77
2022/09/28 08:50:49;;;;;;;0.10;0.10;;;;;;;;;;5023417;28;20413;-77
2022/09/28 08:53:27;;;;;;;0.70;0.10;;;;;;;;;;5028300;28;20120;-78
2022/09/28 08:55:55;;;;;;;0.00;0.00;;;;;;;;;;5018829;28;20041;-78
2022/09/28 08:58:27;;;;;;;0.15;0.10;;;;;;;;;;5023849;28;20054;-78
2022/09/28 09:00:57;;;;;;;0.00;0.00;;;;;;;;;;5024269;28;20073;-78
2022/09/28 09:03:30;;;;;;;0.20;0.20;;;;;;;;;;5028071;28;20053;-78
2022/09/28 09:06:02;;;;;;;0.57;0.57;;;;;;;;;;5028948;28;20060;-78
2022/09/28 09:08:41;;;;;;;0.20;0.20;;;;;;;;;;5024174;28;20053;-76
2022/09/28 09:11:14;;;;;;;0.10;0.10;;;;;;;;;;5021578;28;20077;-79
2022/09/28 09:13:51;;;;;;;0.10;0.10;;;;;;;;;;5031203;28;20049;-77
2022/09/28 09:16:29;;;;;;;0.30;0.10;;;;;;;;;;5023894;28;20100;-78
2022/09/28 09:19:02;;;;;;;0.10;0.10;;;;;;;;;;5022957;28;20149;-77
2022/09/28 09:21:38;;;;;;;0.00;0.00;;;;;;;;;;5017357;28;20049;-78
2022/09/28 09:24:13;;;;;;;0.10;0.10;;;;;;;;;;5024259;28;20108;-78
2022/09/28 09:26:42;;;;;;;0.10;0.10;;;;;;;;;;5017673;28;20064;-77
2022/09/28 09:29:15;;;;;;;0.10;0.10;;;;;;;;;;5018348;28;20387;-78
2022/09/28 09:31:49;;;;;;;0.20;0.20;;;;;;;;;;5024079;28;20168;-78
2022/09/28 09:34:32;;;;;;;0.10;0.10;;;;;;;;;;5022830;28;20056;-77
2022/09/28 09:37:06;;;;;;;0.05;0.05;;;;;;;;;;5023594;28;20049;-78
2022/09/28 09:39:41;;;;;;;0.70;0.28;;;;;;;;;;5020433;28;20508;-77
2022/09/28 09:42:17;;;;;;;0.10;0.10;;;;;;;;;;5017552;28;20125;-78
2022/09/28 09:44:53;;;;;;;0.95;0.20;;;;;;;;;;5027849;28;20059;-78
2022/09/28 09:47:25;;;;;;;0.80;0.30;;;;;;;;;;5028222;28;20060;-78
2022/09/28 09:49:57;;;;;;;0.28;0.22;;;;;;;;;;5013926;28;20072;-78
2022/09/28 09:52:27;;;;;;;0.10;0.10;;;;;;;;;;5021859;28;20387;-78
2022/09/28 09:54:59;;;;;;;0.05;0.05;;;;;;;;;;5021058;28;20056;-77
2022/09/28 09:57:29;;;;;;;0.10;0.10;;;;;;;;;;5026975;28;20133;-77
2022/09/28 09:59:59;;;;;;;0.10;0.10;;;;;;;;;;5029368;28;20442;-78
2022/09/28 10:02:30;;;;;;;0.25;0.25;;;;;;;;;;5030555;28;20077;-78
2022/09/28 10:05:01;;;;;;;0.20;0.20;;;;;;;;;;5020232;28;20058;-78
2022/09/28 10:07:34;;;;;;;0.10;0.10;;;;;;;;;;5028114;28;20049;-78
2022/09/28 10:10:03;;;;;;;0.10;0.10;;;;;;;;;;5029220;28;20459;-78
2022/09/28 10:12:31;;;;;;;0.10;0.10;;;;;;;;;;5015224;28;20686;-77
2022/09/28 10:15:02;;;;;;;0.10;0.10;;;;;;;;;;5028654;28;20045;-78
2022/09/28 10:17:32;;;;;;;0.17;0.17;;;;;;;;;;5023557;28;20054;-79
2022/09/28 10:20:01;;;;;;;0.20;0.20;;;;;;;;;;5029064;28;20468;-78
2022/09/28 10:22:32;;;;;;;6.18;0.30;;;;;;;;;;5016982;28;20042;-79
2022/09/28 10:25:00;;;;;;;0.10;0.10;;;;;;;;;;5031469;28;20053;-79
2022/09/28 10:27:30;;;;;;;0.75;0.20;;;;;;;;;;5026117;28;20049;-79
2022/09/28 10:30:01;;;;;;;0.10;0.10;;;;;;;;;;5032007;28;20073;-80
2022/09/28 10:32:38;;;;;;;0.08;0.03;;;;;;;;;;5027574;28;20133;-77
2022/09/28 10:35:22;;;;;;;0.20;0.20;;;;;;;;;;5031611;28;20049;-79
2022/09/28 10:37:53;;;;;;;0.15;0.15;;;;;;;;;;5021671;28;20361;-79
2022/09/28 10:40:29;;;;;;;0.10;0.10;;;;;;;;;;5021720;28;20406;-79
2022/09/28 10:43:01;;;;;;;0.20;0.20;;;;;;;;;;5029714;28;20144;-78
2022/09/28 10:45:34;;;;;;;0.10;0.10;;;;;;;;;;5026136;28;20257;-78
2022/09/28 10:48:05;;;;;;;0.10;0.10;;;;;;;;;;5021194;28;20057;-78
2022/09/28 10:50:34;;;;;;;0.20;0.20;;;;;;;;;;5027958;28;20501;-80
2022/09/28 10:53:11;;;;;;;0.17;0.17;;;;;;;;;;5032522;28;20410;-79
2022/09/28 10:55:40;;;;;;;0.00;0.00;;;;;;;;;;5023960;28;20136;-78
2022/09/28 10:58:23;;;;;;;0.20;0.20;;;;;;;;;;5027878;28;20100;-78
2022/09/28 11:00:52;;;;;;;0.75;0.28;;;;;;;;;;5028137;28;20048;-78
2022/09/28 11:03:24;;;;;;;0.20;0.20;;;;;;;;;;5027549;28;20084;-79
2022/09/28 11:06:00;;;;;;;0.20;0.20;;;;;;;;;;5025504;28;20136;-79
2022/09/28 11:08:30;;;;;;;0.10;0.10;;;;;;;;;;5029701;28;20053;-79
2022/09/28 11:11:07;;;;;;;0.10;0.10;;;;;;;;;;5020797;28;20076;-79
2022/09/28 11:13:43;;;;;;;0.30;0.22;;;;;;;;;;5028841;28;20050;-79
2022/09/28 11:16:23;;;;;;;0.20;0.20;;;;;;;;;;5026248;28;20497;-78
2022/09/28 11:18:53;;;;;;;0.20;0.20;;;;;;;;;;5030599;28;20123;-79
2022/09/28 11:21:24;;;;;;;0.28;0.22;;;;;;;;;;5026125;28;20042;-79
2022/09/28 11:23:56;;;;;;;0.15;0.15;;;;;;;;;;5031433;28;20128;-79
2022/09/28 11:26:25;;;;;;;0.10;0.10;;;;;;;;;;5019533;28;20057;-79
2022/09/28 11:28:54;;;;;;;0.10;0.10;;;;;;;;;;5029315;28;20079;-80
2022/09/28 11:31:27;;;;;;;0.20;0.10;;;;;;;;;;5030641;28;20045;-79
2022/09/28 11:34:08;;;;;;;0.10;0.10;;;;;;;;;;5031843;28;20049;-79
2022/09/28 11:36:45;;;;;;;0.22;0.20;;;;;;;;;;5024000;28;20088;-79
2022/09/28 11:39:17;;;;;;;0.17;0.17;;;;;;;;;;5023624;28;20085;-79
2022/09/28 11:41:54;;;;;;;0.47;0.40;;;;;;;;;;5023466;28;20057;-79
2022/09/28 11:44:28;;;;;;;0.45;0.45;;;;;;;;;;5024565;28;20581;-79
2022/09/28 11:47:05;;;;;;;0.22;0.22;;;;;;;;;;5021878;28;20049;-80
2022/09/28 11:49:38;;;;;;;0.13;0.13;;;;;;;;;;5015874;28;20077;-80
2022/09/28 11:52:09;;;;;;;1.13;0.38;;;;;;;;;;5023661;28;20053;-80
2022/09/28 11:54:41;;;;;;;0.22;0.22;;;;;;;;;;5024298;28;20053;-81
2022/09/28 11:57:15;;;;;;;0.38;0.38;;;;;;;;;;5019593;28;20153;-78
2022/09/28 11:59:50;;;;;;;0.28;0.28;;;;;;;;;;5019722;28;20747;-80
2022/09/28 12:02:22;;;;;;;0.43;0.40;;;;;;;;;;5013553;28;20434;-78
2022/09/28 12:04:56;;;;;;;0.88;0.40;;;;;;;;;;5017234;28;20071;-80
2022/09/28 12:07:45;;;;;;;0.17;0.17;;;;;;;;;;5018995;28;20069;-80
2022/09/28 12:10:15;;;;;;;0.43;0.28;;;;;;;;;;5022018;28;20145;-80
2022/09/28 12:12:46;;;;;;;0.40;0.32;;;;;;;;;;5028149;28;20079;-80
2022/09/28 12:15:17;;;;;;;2.55;0.60;;;;;;;;;;5026628;28;20041;-79
2022/09/28 12:17:49;;;;;;;0.15;0.15;;;;;;;;;;5028842;28;20857;-79
2022/09/28 12:20:22;;;;;;;0.20;0.20;;;;;;;;;;5022911;28;20053;-78
2022/09/28 12:22:56;;;;;;;7.18;0.45;;;;;;;;;;5014015;28;20049;-78
2022/09/28 12:25:25;;;;;;;0.20;0.20;;;;;;;;;;5020912;28;20053;-78
2022/09/28 12:27:55;;;;;;;0.32;0.13;;;;;;;;;;5018061;28;20506;-78
2022/09/28 12:30:24;;;;;;;0.30;0.30;;;;;;;;;;5015688;28;20488;-79
2022/09/28 12:32:55;;;;;;;0.93;0.52;;;;;;;;;;5018936;28;20049;-79
2022/09/28 12:35:30;;;;;;;0.38;0.38;;;;;;;;;;5024468;28;20100;-79
2022/09/28 12:38:19;;;;;;;0.55;0.45;;;;;;;;;;5020676;28;20049;-77
2022/09/28 12:40:53;;;;;;;0.30;0.30;;;;;;;;;;5022355;28;20049;-78
2022/09/28 12:43:42;;;;;;;0.20;0.20;;;;;;;;;;5021944;28;20421;-78
2022/09/28 12:46:17;;;;;;;1.45;0.90;;;;;;;;;;5024546;28;20049;-79
2022/09/28 12:48:57;;;;;;;0.93;0.57;;;;;;;;;;5017544;28;20045;-78
2022/09/28 12:51:51;;;;;;;0.17;0.15;;;;;;;;;;5021417;28;20563;-79
2022/09/28 12:54:40;;;;;;;1.55;0.32;;;;;;;;;;5015241;28;20134;-78
2022/09/28 12:57:28;;;;;;;0.57;0.45;;;;;;;;;;5025981;28;20052;-79
2022/09/28 13:00:01;;;;;;;0.20;0.20;;;;;;;;;;5024720;28;20045;-80
2022/09/28 13:02:39;;;;;;;0.40;0.40;;;;;;;;;;5029932;28;20136;-79
2022/09/28 13:05:19;;;;;;;0.85;0.22;;;;;;;;;;5024344;28;20497;-79
2022/09/28 13:07:52;;;;;;;0.25;0.25;;;;;;;;;;5024341;28;20072;-79
2022/09/28 13:10:31;;;;;;;1.55;0.45;;;;;;;;;;5022804;28;20068;-77
2022/09/28 13:13:09;;;;;;;2.33;0.60;;;;;;;;;;5025921;28;20501;-79
2022/09/28 13:15:43;;;;;;;0.20;0.20;;;;;;;;;;5028276;28;20045;-78
2022/09/28 13:18:16;;;;;;;0.20;0.20;;;;;;;;;;5025509;28;20382;-79
2022/09/28 13:20:59;;;;;;;0.95;0.30;;;;;;;;;;5026127;28;20098;-78
2022/09/28 13:23:31;;;;;;;7.57;0.28;;;;;;;;;;5021467;28;20132;-79
2022/09/28 13:26:03;;;;;;;0.95;0.60;;;;;;;;;;5021292;28;20059;-80
2022/09/28 13:28:32;;;;;;;0.45;0.45;;;;;;;;;;5024157;28;20112;-78
2022/09/28 13:31:02;;;;;;;2.28;0.40;;;;;;;;;;5021850;28;20045;-78
2022/09/28 13:33:34;;;;;;;2.50;0.40;;;;;;;;;;5023348;28;20049;-79
2022/09/28 13:36:03;;;;;;;1.02;0.38;;;;;;;;;;5022640;28;20049;-79
2022/09/28 13:38:48;;;;;;;0.20;0.20;;;;;;;;;;5026541;28;20132;-80
2022/09/28 13:41:23;;;;;;;0.20;0.20;;;;;;;;;;5017678;28;20458;-79
2022/09/28 13:44:06;;;;;;;0.63;0.43;;;;;;;;;;5021373;28;20161;-76
2022/09/28 13:46:40;;;;;;;1.85;0.17;;;;;;;;;;5026089;28;20041;-79
2022/09/28 13:49:12;;;;;;;0.80;0.43;;;;;;;;;;5028243;28;20477;-79
2022/09/28 13:51:46;;;;;;;0.10;0.10;;;;;;;;;;5019779;28;20057;-78
2022/09/28 13:54:21;;;;;;;0.30;0.30;;;;;;;;;;5023321;28;20054;-77
2022/09/28 13:56:54;;;;;;;0.20;0.20;;;;;;;;;;5020807;28;20133;-79
2022/09/28 13:59:24;;;;;;;0.17;0.17;;;;;;;;;;5020244;28;20046;-78
2022/09/28 14:01:57;;;;;;;0.35;0.32;;;;;;;;;;5021629;28;20065;-77
2022/09/28 14:04:50;;;;;;;0.45;0.28;;;;;;;;;;5025336;28;20053;-78
2022/09/28 14:07:22;;;;;;;1.20;0.22;;;;;;;;;;5025013;28;20077;-79
2022/09/28 14:10:10;;;;;;;0.45;0.45;;;;;;;;;;5025092;28;20116;-77
2022/09/28 14:12:50;;;;;;;7.32;0.75;;;;;;;;;;5018549;28;20046;-78
2022/09/28 14:15:48;;;;;;;3.08;1.17;;;;;;;;;;5019490;28;20049;-78
2022/09/28 14:18:22;;;;;;;0.20;0.20;;;;;;;;;;4977552;28;20105;-77
2022/09/28 14:20:57;;;;;;;0.17;0.17;;;;;;;;;;5018650;28;20505;-78
2022/09/28 14:23:35;;;;;;;18.10;0.57;;;;;;;;;;5022217;28;20069;-78
2022/09/28 14:26:14;;;;;;;0.30;0.30;;;;;;;;;;5023857;28;20124;-78
2022/09/28 14:28:49;;;;;;;0.55;0.30;;;;;;;;;;5026364;28;20284;-78
2022/09/28 14:31:20;;;;;;;1.08;0.50;;;;;;;;;;5022996;28;20053;-80
2022/09/28 14:33:56;;;;;;;0.38;0.38;;;;;;;;;;5020865;28;20050;-78
2022/09/28 14:42:11;;;;;;;0.50;0.50;;;;;;;;;;5018598;28;20129;-77
2022/09/28 14:44:58;;;;;;;0.40;0.40;;;;;;;;;;5028546;28;20128;-77
2022/09/28 14:47:34;;;;;;;0.30;0.30;;;;;;;;;;5024985;28;20362;-77
2022/09/28 14:50:18;;;;;;;9.88;0.80;;;;;;;;;;5026287;28;20050;-77
2022/09/28 14:52:48;;;;;;;2.33;1.13;;;;;;;;;;5030618;28;20045;-77
2022/09/28 14:55:18;;;;;;;0.40;0.40;;;;;;;;;;5027089;28;20485;-76
2022/09/28 14:57:54;;;;;;;1.20;0.55;;;;;;;;;;5028138;28;20071;-76
2022/09/28 15:00:25;;;;;;;0.25;0.22;;;;;;;;;;5028103;28;20049;-77
2022/09/28 15:02:55;;;;;;;0.50;0.50;;;;;;;;;;5028372;28;20056;-77
2022/09/28 15:05:24;;;;;;;0.57;0.40;;;;;;;;;;5021251;28;20107;-77
2022/09/28 15:07:54;;;;;;;0.30;0.30;;;;;;;;;;5022084;28;20050;-77
2022/09/28 15:10:27;;;;;;;0.60;0.38;;;;;;;;;;5030066;28;20501;-76
2022/09/28 15:13:00;;;;;;;0.57;0.57;;;;;;;;;;5026916;28;20578;-76
2022/09/28 15:15:32;;;;;;;0.75;0.32;;;;;;;;;;5029957;28;20068;-76
2022/09/28 15:18:26;;;;;;;0.65;0.65;;;;;;;;;;5025074;28;20482;-77
2022/09/28 15:20:55;;;;;;;1.98;0.45;;;;;;;;;;4954821;28;20055;-76
2022/09/28 15:23:25;;;;;;;0.70;0.63;;;;;;;;;;5026618;28;20046;-76
2022/09/28 15:25:54;;;;;;;0.20;0.20;;;;;;;;;;5025511;28;20041;-77
2022/09/28 15:28:24;;;;;;;0.60;0.55;;;;;;;;;;5028248;28;20457;-76